Time;durP1;ratioP1;P1;durP2;ratioP2;P2;SDS_P1;SDS_P2;PMS_P1;PMS_P2;Temp;Humidity;BMP_temperature;BMP_pressure;BME280_temperature;BME280_humidity;BME280_pressure;Samples;Min_cycle;Max_cycle;Signal;HPM_P1;HPM_P2
2022/08/07 00:01:08;;;;;;;8.18;5.40;;;15.80;99.90;;;;;;5014576;28;20424;-48
2022/08/07 00:03:34;;;;;;;9.32;5.25;;;15.80;99.90;;;;;;5014015;28;20153;-53
2022/08/07 00:05:59;;;;;;;8.10;4.55;;;15.70;99.90;;;;;;4997191;28;20062;-51
2022/08/07 00:08:25;;;;;;;8.85;5.75;;;15.70;99.90;;;;;;5014423;28;20038;-51
2022/08/07 00:10:51;;;;;;;7.57;5.07;;;15.70;99.90;;;;;;5014432;28;20041;-51
2022/08/07 00:13:19;;;;;;;10.38;5.63;;;15.70;99.90;;;;;;5014358;28;20095;-50
2022/08/07 00:15:45;;;;;;;10.60;5.38;;;15.70;99.90;;;;;;5012940;28;20484;-50
2022/08/07 00:18:11;;;;;;;6.47;4.70;;;15.60;99.90;;;;;;4996618;28;20129;-50
2022/08/07 00:20:38;;;;;;;6.07;4.82;;;15.60;99.90;;;;;;4994411;28;20058;-52
2022/08/07 00:23:07;;;;;;;8.32;5.88;;;15.50;99.90;;;;;;4994483;28;20150;-50
2022/08/07 00:25:34;;;;;;;8.40;5.47;;;15.50;99.90;;;;;;4994353;28;20041;-45
2022/08/07 00:28:00;;;;;;;9.10;5.88;;;15.40;99.90;;;;;;4994668;28;20080;-49
2022/08/07 00:30:26;;;;;;;8.13;5.68;;;15.40;99.90;;;;;;4994394;28;20038;-50
2022/08/07 00:32:52;;;;;;;8.77;5.43;;;15.40;99.90;;;;;;4994454;28;20038;-54
2022/08/07 00:35:18;;;;;;;8.25;5.93;;;15.30;99.90;;;;;;4994446;28;20038;-53
2022/08/07 00:37:44;;;;;;;9.05;5.80;;;15.30;99.90;;;;;;4994487;28;20045;-52
2022/08/07 00:40:11;;;;;;;6.60;5.32;;;15.20;99.90;;;;;;4994344;28;20054;-51
2022/08/07 00:42:37;;;;;;;7.88;6.53;;;15.20;99.90;;;;;;4994213;28;20042;-53
2022/08/07 00:45:04;;;;;;;7.25;5.57;;;15.10;99.90;;;;;;4994268;28;20042;-51
2022/08/07 00:47:30;;;;;;;7.18;5.78;;;15.10;99.90;;;;;;5008065;28;20113;-50
2022/08/07 00:49:56;;;;;;;6.88;5.50;;;15.10;99.90;;;;;;5013812;28;20032;-51
2022/08/07 00:52:22;;;;;;;8.73;5.93;;;15.10;99.90;;;;;;5013184;28;20042;-47
2022/08/07 00:54:48;;;;;;;7.70;5.85;;;15.00;99.90;;;;;;5013464;28;20048;-50
2022/08/07 00:57:16;;;;;;;9.45;5.68;;;15.00;99.90;;;;;;5006877;28;20034;-49
2022/08/07 00:59:42;;;;;;;8.05;5.82;;;14.90;99.90;;;;;;4993796;28;20038;-51
2022/08/07 01:02:08;;;;;;;7.40;5.63;;;14.80;99.90;;;;;;4993871;28;20070;-50
2022/08/07 01:04:34;;;;;;;8.10;6.40;;;14.80;99.90;;;;;;4994016;28;20070;-49
2022/08/07 01:07:00;;;;;;;8.75;5.72;;;14.90;99.90;;;;;;4993593;28;20105;-51
2022/08/07 01:09:26;;;;;;;8.65;5.95;;;14.80;99.90;;;;;;4993703;28;20042;-50
2022/08/07 01:11:52;;;;;;;7.53;5.40;;;14.80;99.90;;;;;;4993368;28;20045;-49
2022/08/07 01:14:19;;;;;;;9.07;6.20;;;14.70;99.90;;;;;;4993579;28;20097;-48
2022/08/07 01:16:45;;;;;;;8.80;6.07;;;14.70;99.90;;;;;;4993582;28;20097;-50
2022/08/07 01:19:12;;;;;;;8.10;5.97;;;14.60;99.90;;;;;;4993579;28;20064;-51
2022/08/07 01:21:39;;;;;;;7.85;5.93;;;14.50;99.90;;;;;;4993569;28;20062;-49
2022/08/07 01:24:05;;;;;;;7.10;5.75;;;14.50;99.90;;;;;;5005902;28;20038;-52
2022/08/07 01:26:32;;;;;;;7.90;5.97;;;14.50;99.90;;;;;;4993180;28;20030;-54
2022/08/07 01:28:58;;;;;;;6.82;5.20;;;14.50;99.90;;;;;;5011177;28;20038;-53
2022/08/07 01:31:27;;;;;;;7.40;5.18;;;14.40;99.90;;;;;;5012746;28;20389;-50
2022/08/07 01:33:53;;;;;;;7.20;4.82;;;14.20;99.90;;;;;;5013114;28;20117;-51
2022/08/07 01:36:19;;;;;;;7.10;5.13;;;14.10;99.90;;;;;;5012746;28;20049;-51
2022/08/07 01:38:45;;;;;;;6.65;5.30;;;14.00;99.90;;;;;;5012976;28;20085;-47
2022/08/07 01:41:12;;;;;;;6.93;5.65;;;14.00;99.90;;;;;;5012758;28;20045;-50
2022/08/07 01:43:38;;;;;;;7.97;5.63;;;14.00;99.90;;;;;;5012890;28;20061;-51
2022/08/07 01:46:04;;;;;;;8.18;6.20;;;14.00;99.90;;;;;;5012358;28;20533;-51
2022/08/07 01:48:31;;;;;;;7.70;5.40;;;14.00;99.90;;;;;;5012593;28;20120;-50
2022/08/07 01:51:05;;;;;;;8.75;5.25;;;14.00;99.90;;;;;;5012248;28;20479;-53
2022/08/07 01:53:35;;;;;;;6.32;4.93;;;13.90;99.90;;;;;;4994513;28;20493;-51
2022/08/07 01:56:08;;;;;;;9.38;5.53;;;13.90;99.90;;;;;;5005369;28;20120;-48
2022/08/07 01:58:40;;;;;;;7.50;5.20;;;13.90;99.90;;;;;;5011987;28;20042;-50
2022/08/07 02:01:13;;;;;;;6.45;5.18;;;13.90;99.90;;;;;;5012079;28;20034;-51
2022/08/07 02:03:44;;;;;;;6.93;4.97;;;13.90;99.90;;;;;;5011227;28;20041;-48
2022/08/07 02:06:14;;;;;;;6.38;4.93;;;13.80;99.90;;;;;;5011420;28;20037;-52
2022/08/07 02:08:42;;;;;;;7.68;4.50;;;13.80;99.90;;;;;;5010971;28;20080;-48
2022/08/07 02:11:09;;;;;;;7.55;5.95;;;13.90;99.90;;;;;;5012209;28;20060;-46
2022/08/07 02:13:37;;;;;;;7.47;5.18;;;13.90;99.90;;;;;;5012211;28;20455;-50
2022/08/07 02:16:05;;;;;;;7.03;5.28;;;13.90;99.90;;;;;;4978923;28;20046;-49
2022/08/07 02:18:35;;;;;;;6.53;4.78;;;14.00;99.90;;;;;;4992736;28;20042;-48
2022/08/07 02:21:02;;;;;;;7.60;5.10;;;14.00;99.90;;;;;;5010470;28;20099;-49
2022/08/07 02:23:32;;;;;;;7.65;5.50;;;13.90;99.90;;;;;;5011618;28;20137;-53
2022/08/07 02:25:58;;;;;;;7.15;5.65;;;14.00;99.90;;;;;;5011352;28;20042;-47
2022/08/07 02:28:27;;;;;;;8.18;5.43;;;14.00;99.90;;;;;;5011965;28;20478;-52
2022/08/07 02:30:55;;;;;;;7.05;5.20;;;14.00;99.90;;;;;;5011710;28;20120;-48
2022/08/07 02:33:24;;;;;;;6.68;4.93;;;13.90;99.90;;;;;;5010363;28;20081;-51
2022/08/07 02:35:51;;;;;;;7.63;5.72;;;13.70;99.90;;;;;;5011440;28;20057;-54
2022/08/07 02:38:19;;;;;;;7.25;5.43;;;13.80;99.90;;;;;;5011879;28;20092;-50
2022/08/07 02:40:46;;;;;;;8.30;5.65;;;13.80;99.90;;;;;;5011622;28;20077;-51
2022/08/07 02:43:12;;;;;;;6.70;4.75;;;13.80;99.90;;;;;;5011746;28;20374;-49
2022/08/07 02:45:41;;;;;;;6.53;4.85;;;13.80;99.90;;;;;;5011228;28;20485;-50
2022/08/07 02:48:07;;;;;;;6.88;5.07;;;13.60;99.90;;;;;;5011179;28;20123;-51
2022/08/07 02:50:38;;;;;;;7.57;5.20;;;13.60;99.90;;;;;;5011533;28;20053;-51
2022/08/07 02:53:10;;;;;;;8.45;5.65;;;13.60;99.90;;;;;;5009288;28;20124;-52
2022/08/07 02:55:42;;;;;;;8.32;5.03;;;13.60;99.90;;;;;;4985454;28;20089;-51
2022/08/07 02:58:11;;;;;;;6.78;5.32;;;13.60;99.90;;;;;;5010718;28;20111;-48
2022/08/07 03:00:39;;;;;;;6.90;5.22;;;13.50;99.90;;;;;;5010018;28;20041;-53
2022/08/07 03:03:07;;;;;;;7.78;5.32;;;13.50;99.90;;;;;;5011075;28;20064;-51
2022/08/07 03:05:35;;;;;;;7.40;5.72;;;13.50;99.90;;;;;;5011369;28;20108;-50
2022/08/07 03:08:03;;;;;;;6.95;4.88;;;13.50;99.90;;;;;;4995809;28;20077;-50
2022/08/07 03:10:31;;;;;;;9.13;5.20;;;13.60;99.90;;;;;;4997167;28;20038;-49
2022/08/07 03:12:57;;;;;;;7.75;5.50;;;13.50;99.90;;;;;;5009867;28;20044;-49
2022/08/07 03:15:24;;;;;;;7.88;6.00;;;13.30;99.90;;;;;;5011216;28;20095;-51
2022/08/07 03:17:50;;;;;;;7.45;5.22;;;13.50;99.90;;;;;;5009597;28;20133;-49
2022/08/07 03:20:16;;;;;;;7.55;5.25;;;13.50;99.90;;;;;;4991251;28;20062;-49
2022/08/07 03:22:43;;;;;;;7.10;5.20;;;13.40;99.90;;;;;;4991454;28;20046;-49
2022/08/07 03:25:09;;;;;;;8.13;5.95;;;13.40;99.90;;;;;;4991735;28;20042;-52
2022/08/07 03:27:35;;;;;;;10.35;5.80;;;13.50;99.90;;;;;;4991032;28;20042;-46
2022/08/07 03:30:02;;;;;;;8.75;6.25;;;13.50;99.90;;;;;;4991515;28;20046;-51
2022/08/07 03:32:38;;;;;;;7.72;6.47;;;13.40;99.90;;;;;;4991553;28;20046;-51
2022/08/07 03:35:09;;;;;;;8.70;6.60;;;13.40;99.90;;;;;;4991540;28;20500;-49
2022/08/07 03:37:36;;;;;;;10.77;6.95;;;13.20;99.90;;;;;;4991333;28;20462;-49
2022/08/07 03:40:03;;;;;;;8.32;6.22;;;13.10;99.90;;;;;;5009588;28;20048;-54
2022/08/07 03:42:32;;;;;;;7.75;6.13;;;13.00;99.90;;;;;;5010986;28;20140;-52
2022/08/07 03:44:58;;;;;;;7.70;4.70;;;13.10;99.90;;;;;;4998977;28;20045;-50
2022/08/07 03:47:28;;;;;;;9.50;6.28;;;13.00;99.90;;;;;;5000993;28;20149;-47
2022/08/07 03:49:56;;;;;;;7.75;5.55;;;13.00;99.90;;;;;;5010575;28;20042;-52
2022/08/07 03:52:25;;;;;;;8.40;6.15;;;12.90;99.90;;;;;;5009755;28;20092;-50
2022/08/07 03:54:50;;;;;;;9.40;6.75;;;13.00;99.90;;;;;;4998220;28;20130;-47
2022/08/07 03:57:16;;;;;;;10.15;6.22;;;13.00;99.90;;;;;;5010575;28;20533;-50
2022/08/07 03:59:43;;;;;;;8.32;6.18;;;13.10;99.90;;;;;;5010688;28;20034;-47
2022/08/07 04:02:09;;;;;;;9.10;6.68;;;13.10;99.90;;;;;;5010658;28;20508;-50
2022/08/07 04:04:35;;;;;;;9.85;6.85;;;13.10;99.90;;;;;;4992159;28;20034;-47
2022/08/07 04:07:01;;;;;;;9.30;5.78;;;13.10;99.90;;;;;;4990861;28;20536;-50
2022/08/07 04:09:28;;;;;;;9.23;6.63;;;13.10;99.90;;;;;;4991168;28;20080;-48
2022/08/07 04:11:55;;;;;;;8.30;6.13;;;13.00;99.90;;;;;;4990966;28;20094;-50
2022/08/07 04:14:21;;;;;;;10.02;6.47;;;12.90;99.90;;;;;;4991021;28;20088;-48
2022/08/07 04:16:50;;;;;;;9.27;5.60;;;12.90;99.90;;;;;;4991020;28;20494;-47
2022/08/07 04:19:16;;;;;;;9.15;6.95;;;12.80;99.90;;;;;;4991172;28;20125;-51
2022/08/07 04:21:42;;;;;;;9.63;5.65;;;12.80;99.90;;;;;;5010573;28;20113;-52
2022/08/07 04:24:11;;;;;;;8.27;6.40;;;12.80;99.90;;;;;;5010299;28;20046;-50
2022/08/07 04:26:40;;;;;;;9.20;6.38;;;12.80;99.90;;;;;;5011532;28;20108;-51
2022/08/07 04:29:09;;;;;;;9.40;5.80;;;12.80;99.90;;;;;;5014027;28;20044;-50
2022/08/07 04:31:38;;;;;;;8.90;6.65;;;12.80;99.90;;;;;;4994316;28;20031;-49
2022/08/07 04:34:05;;;;;;;8.98;6.88;;;12.80;99.90;;;;;;4994326;28;20104;-51
2022/08/07 04:36:31;;;;;;;8.50;6.38;;;12.90;99.90;;;;;;4994224;28;20050;-51
2022/08/07 04:38:57;;;;;;;8.50;5.55;;;12.90;99.90;;;;;;4994108;28;20034;-48
2022/08/07 04:41:23;;;;;;;7.95;5.82;;;13.00;99.90;;;;;;4994170;28;20081;-52
2022/08/07 04:43:49;;;;;;;8.05;5.03;;;13.00;99.90;;;;;;5001036;28;20108;-47
2022/08/07 04:46:37;;;;;;;9.68;7.10;;;13.00;99.90;;;;;;4997069;28;20069;-47
2022/08/07 04:49:08;;;;;;;10.07;6.93;;;13.10;99.90;;;;;;4993943;28;20038;-51
2022/08/07 04:51:42;;;;;;;10.20;7.50;;;13.00;99.90;;;;;;4994340;28;20096;-50
2022/08/07 04:54:31;;;;;;;13.35;7.15;;;13.00;99.90;;;;;;5007614;28;20283;-48
2022/08/07 04:57:10;;;;;;;9.23;7.72;;;13.00;99.90;;;;;;4993470;28;20038;-50
2022/08/07 04:59:45;;;;;;;9.80;7.70;;;13.10;99.90;;;;;;4976379;28;20049;-52
2022/08/07 05:02:21;;;;;;;10.00;6.82;;;13.20;99.90;;;;;;4994605;28;20125;-52
2022/08/07 05:05:27;;;;;;;11.07;8.20;;;13.20;99.90;;;;;;5012784;28;20038;-50
2022/08/07 05:08:03;;;;;;;10.73;8.63;;;13.20;99.90;;;;;;4979803;28;20088;-49
2022/08/07 05:10:40;;;;;;;10.90;8.98;;;13.20;99.90;;;;;;5005922;28;20500;-52
2022/08/07 05:13:15;;;;;;;11.57;8.57;;;13.30;99.90;;;;;;4993434;28;20034;-49
2022/08/07 05:15:43;;;;;;;12.75;9.43;;;13.40;99.90;;;;;;4993947;28;20622;-51
2022/08/07 05:18:19;;;;;;;13.18;9.25;;;13.40;99.90;;;;;;5012123;28;20473;-48
2022/08/07 05:20:52;;;;;;;12.68;10.25;;;13.40;99.90;;;;;;5012549;28;20086;-50
2022/08/07 05:23:29;;;;;;;13.00;9.60;;;13.50;99.90;;;;;;5012964;28;20042;-48
2022/08/07 05:25:56;;;;;;;12.55;10.13;;;13.50;99.90;;;;;;5003771;28;20034;-50
2022/08/07 05:28:23;;;;;;;14.27;11.43;;;13.50;99.90;;;;;;5009292;28;20042;-50
2022/08/07 05:30:52;;;;;;;13.20;10.48;;;13.60;99.90;;;;;;5011372;28;20555;-50
2022/08/07 05:33:19;;;;;;;11.95;9.75;;;13.70;99.90;;;;;;5012575;28;20042;-50
2022/08/07 05:35:45;;;;;;;13.55;11.25;;;13.70;99.90;;;;;;5011396;28;20042;-50
2022/08/07 05:38:11;;;;;;;13.52;10.82;;;13.70;99.90;;;;;;5011513;28;20049;-50
2022/08/07 05:40:38;;;;;;;12.90;9.82;;;13.70;99.90;;;;;;4995928;28;20050;-50
2022/08/07 05:43:04;;;;;;;13.10;10.60;;;13.80;99.90;;;;;;5012239;28;20045;-49
2022/08/07 05:45:30;;;;;;;15.07;11.82;;;14.00;99.90;;;;;;5012764;28;20040;-48
2022/08/07 05:47:57;;;;;;;14.20;11.02;;;14.00;99.90;;;;;;4994546;28;20062;-46
2022/08/07 05:50:24;;;;;;;15.57;11.73;;;14.00;99.90;;;;;;5007898;28;20249;-49
2022/08/07 05:52:49;;;;;;;15.88;11.73;;;14.10;99.90;;;;;;5011855;28;20133;-48
2022/08/07 05:55:15;;;;;;;13.70;11.30;;;14.10;99.90;;;;;;4992817;28;20464;-52
2022/08/07 05:57:42;;;;;;;14.60;10.88;;;14.20;99.90;;;;;;4974690;28;20046;-46
2022/08/07 06:00:09;;;;;;;13.55;10.77;;;14.20;99.90;;;;;;4992931;28;20042;-47
2022/08/07 06:02:35;;;;;;;15.50;12.05;;;14.30;99.90;;;;;;4992218;28;20049;-50
2022/08/07 06:05:08;;;;;;;13.55;11.05;;;14.40;99.90;;;;;;5002647;28;20034;-49
2022/08/07 06:07:34;;;;;;;14.00;11.38;;;14.50;99.90;;;;;;5010778;28;20034;-51
2022/08/07 06:10:01;;;;;;;12.95;11.00;;;14.50;99.90;;;;;;5012255;28;20086;-51
2022/08/07 06:12:28;;;;;;;14.32;10.73;;;14.60;99.90;;;;;;5012190;28;20046;-51
2022/08/07 06:14:54;;;;;;;16.27;12.18;;;14.60;99.90;;;;;;4993789;28;20037;-53
2022/08/07 06:17:20;;;;;;;14.93;11.52;;;14.70;99.90;;;;;;4993887;28;20045;-50
2022/08/07 06:19:46;;;;;;;15.30;11.82;;;14.80;99.90;;;;;;5003338;28;20076;-49
2022/08/07 06:22:13;;;;;;;14.35;11.82;;;14.90;99.90;;;;;;5011824;28;20524;-51
2022/08/07 06:24:39;;;;;;;15.73;12.40;;;15.00;99.90;;;;;;5006128;28;20169;-52
2022/08/07 06:27:05;;;;;;;16.45;12.25;;;15.00;99.90;;;;;;4995505;28;20448;-52
2022/08/07 06:29:32;;;;;;;17.00;13.30;;;15.10;99.90;;;;;;4992410;28;20088;-49
2022/08/07 06:31:58;;;;;;;17.83;13.63;;;15.20;99.90;;;;;;5009133;28;20137;-45
2022/08/07 06:34:27;;;;;;;16.55;13.35;;;15.20;99.90;;;;;;4993018;28;20071;-50
2022/08/07 06:36:53;;;;;;;16.73;13.50;;;15.30;99.90;;;;;;5010273;28;20045;-48
2022/08/07 06:39:20;;;;;;;16.58;13.07;;;15.30;99.90;;;;;;5011888;28;20049;-49
2022/08/07 06:41:53;;;;;;;16.65;12.63;;;15.40;99.90;;;;;;4996084;28;20038;-46
2022/08/07 06:44:20;;;;;;;17.00;13.05;;;15.40;99.90;;;;;;5010060;28;20042;-51
2022/08/07 06:46:46;;;;;;;16.90;13.25;;;15.40;99.90;;;;;;5011431;28;20077;-51
2022/08/07 06:49:12;;;;;;;16.02;12.57;;;15.50;99.90;;;;;;4995802;28;20086;-52
2022/08/07 06:51:39;;;;;;;15.23;12.00;;;15.60;99.90;;;;;;4991787;28;20497;-49
2022/08/07 06:54:07;;;;;;;13.85;11.38;;;15.70;99.90;;;;;;4991961;28;20371;-51
2022/08/07 06:56:42;;;;;;;16.63;12.27;;;15.70;99.90;;;;;;4996709;28;20046;-50
2022/08/07 06:59:20;;;;;;;14.02;11.15;;;15.80;99.90;;;;;;5009542;28;20117;-50
2022/08/07 07:01:47;;;;;;;12.13;9.82;;;15.80;99.90;;;;;;5011246;28;20038;-48
2022/08/07 07:04:14;;;;;;;12.43;10.13;;;15.80;99.90;;;;;;5011349;28;20121;-51
2022/08/07 07:06:39;;;;;;;11.60;9.75;;;16.00;99.90;;;;;;5010942;28;20033;-49
2022/08/07 07:09:28;;;;;;;13.18;9.35;;;16.00;99.90;;;;;;4992584;28;20038;-51
2022/08/07 07:12:03;;;;;;;9.95;7.93;;;16.10;99.90;;;;;;4991714;28;20042;-52
2022/08/07 07:14:50;;;;;;;8.65;6.30;;;16.10;99.90;;;;;;5003223;28;20107;-51
2022/08/07 07:17:36;;;;;;;8.50;6.25;;;16.20;99.90;;;;;;5008405;28;20144;-50
2022/08/07 07:20:07;;;;;;;8.85;6.10;;;16.40;99.90;;;;;;5005338;28;20120;-49
2022/08/07 07:22:34;;;;;;;9.43;6.85;;;16.40;99.90;;;;;;5002339;28;20084;-51
2022/08/07 07:25:03;;;;;;;10.80;7.05;;;16.50;99.90;;;;;;4991348;28;20038;-52
2022/08/07 07:27:32;;;;;;;9.02;6.10;;;16.50;99.90;;;;;;5009275;28;20111;-54
2022/08/07 07:30:01;;;;;;;10.00;6.80;;;16.60;99.90;;;;;;5010819;28;20121;-51
2022/08/07 07:32:30;;;;;;;11.52;6.15;;;16.70;99.90;;;;;;4992094;28;20486;-49
2022/08/07 07:34:59;;;;;;;7.60;5.95;;;16.80;99.90;;;;;;4991379;28;20034;-49
2022/08/07 07:37:26;;;;;;;7.80;6.13;;;16.80;99.90;;;;;;4995346;28;20042;-51
2022/08/07 07:39:57;;;;;;;9.38;6.07;;;16.90;99.90;;;;;;5002908;28;20030;-53
2022/08/07 07:42:25;;;;;;;7.45;5.63;;;17.00;99.90;;;;;;5006465;28;20393;-53
2022/08/07 07:44:52;;;;;;;8.23;6.35;;;17.00;99.90;;;;;;5007810;28;20044;-52
2022/08/07 07:47:19;;;;;;;7.55;5.75;;;17.10;99.90;;;;;;5008973;28;20512;-49
2022/08/07 07:49:47;;;;;;;7.97;5.72;;;17.10;99.90;;;;;;5009740;28;20365;-49
2022/08/07 07:52:14;;;;;;;8.25;5.05;;;17.20;99.90;;;;;;5007234;28;20096;-52
2022/08/07 07:54:41;;;;;;;7.43;5.65;;;17.20;99.90;;;;;;5013079;28;20382;-49
2022/08/07 07:57:09;;;;;;;8.23;5.60;;;17.30;99.90;;;;;;5010546;28;20061;-52
2022/08/07 07:59:37;;;;;;;9.32;5.38;;;17.30;99.90;;;;;;4998712;28;20052;-52
2022/08/07 08:02:04;;;;;;;7.05;5.28;;;17.30;99.90;;;;;;5010129;28;20206;-51
2022/08/07 08:04:32;;;;;;;7.85;5.55;;;17.40;99.90;;;;;;5013254;28;20069;-49
2022/08/07 08:07:00;;;;;;;7.95;5.00;;;17.40;99.90;;;;;;5011848;28;20044;-52
2022/08/07 08:09:26;;;;;;;9.15;5.45;;;17.50;99.90;;;;;;5011489;28;20451;-50
2022/08/07 08:11:53;;;;;;;6.72;4.90;;;17.50;99.90;;;;;;5012078;28;20038;-52
2022/08/07 08:14:19;;;;;;;6.05;4.47;;;17.50;99.90;;;;;;5012250;28;20057;-49
2022/08/07 08:16:45;;;;;;;6.40;4.40;;;17.60;99.90;;;;;;5010876;28;20033;-52
2022/08/07 08:19:16;;;;;;;6.95;4.57;;;17.60;99.90;;;;;;5010897;28;20064;-54
2022/08/07 08:27:28;;;;;;;5.82;3.60;;;17.90;99.90;;;;;;5008477;28;20060;-51
2022/08/07 08:29:59;;;;;;;5.50;3.08;;;17.80;99.90;;;;;;5011871;28;20466;-52
2022/08/07 08:32:27;;;;;;;4.65;2.67;;;17.90;99.90;;;;;;5008462;28;20048;-54
2022/08/07 08:34:56;;;;;;;6.85;3.00;;;17.90;99.90;;;;;;5010794;28;20037;-55
2022/08/07 08:37:23;;;;;;;4.90;3.10;;;17.90;99.90;;;;;;5008822;28;20036;-55
2022/08/07 08:39:51;;;;;;;5.38;3.17;;;17.80;99.90;;;;;;5009489;28;20054;-50
2022/08/07 08:42:27;;;;;;;4.60;3.05;;;17.80;99.90;;;;;;5008795;28;20040;-55
2022/08/07 08:45:12;;;;;;;5.05;2.67;;;17.90;99.90;;;;;;5013058;28;20037;-52
2022/08/07 08:47:59;;;;;;;4.43;2.17;;;18.00;99.90;;;;;;5010481;28;20050;-55
2022/08/07 08:50:40;;;;;;;6.25;2.97;;;18.20;99.90;;;;;;5009251;28;20045;-54
2022/08/07 08:53:26;;;;;;;4.10;2.20;;;18.30;99.90;;;;;;5009118;28;20394;-52
2022/08/07 08:56:03;;;;;;;4.30;2.42;;;18.30;99.90;;;;;;5006098;28;20049;-52
2022/08/07 08:58:34;;;;;;;6.20;2.42;;;18.30;99.90;;;;;;5008254;28;20123;-53
2022/08/07 09:01:09;;;;;;;4.80;2.78;;;18.50;99.90;;;;;;5009144;28;20049;-54
2022/08/07 09:03:54;;;;;;;4.72;2.75;;;18.70;99.90;;;;;;5006375;28;20038;-54
2022/08/07 09:06:58;;;;;;;4.10;2.20;;;18.80;99.90;;;;;;5006050;28;20041;-51
2022/08/07 09:09:35;;;;;;;4.65;2.60;;;19.10;99.90;;;;;;4989903;28;20049;-54
2022/08/07 09:12:11;;;;;;;5.28;2.80;;;19.10;99.90;;;;;;5008408;28;20077;-51
2022/08/07 09:15:04;;;;;;;5.05;2.75;;;19.40;99.90;;;;;;5008607;28;20044;-53
2022/08/07 09:17:56;;;;;;;5.88;2.35;;;19.30;99.90;;;;;;5009595;28;20124;-51
2022/08/07 09:20:46;;;;;;;4.53;2.05;;;19.50;99.90;;;;;;5008809;28;20050;-49
2022/08/07 09:23:51;;;;;;;3.78;2.28;;;19.80;99.90;;;;;;5007581;28;20112;-50
2022/08/07 09:26:30;;;;;;;3.47;2.00;;;20.00;99.90;;;;;;5008014;28;20732;-53
2022/08/07 09:29:18;;;;;;;4.13;2.30;;;20.00;99.30;;;;;;5008889;28;20080;-51
2022/08/07 09:31:54;;;;;;;4.82;2.20;;;20.10;99.00;;;;;;5006885;28;20037;-48
2022/08/07 09:35:08;;;;;;;3.00;1.65;;;20.20;98.10;;;;;;5007681;28;20077;-49
2022/08/07 09:37:42;;;;;;;3.72;1.80;;;20.30;96.80;;;;;;5000595;28;20053;-51
2022/08/07 09:40:21;;;;;;;5.35;2.72;;;20.40;97.40;;;;;;5008386;28;20117;-53
2022/08/07 09:43:02;;;;;;;5.63;2.45;;;20.60;98.40;;;;;;5009961;28;20049;-53
2022/08/07 09:45:51;;;;;;;4.40;2.20;;;20.70;97.90;;;;;;5006299;28;20081;-53
2022/08/07 09:48:27;;;;;;;4.47;2.28;;;20.60;97.60;;;;;;5007555;28;20749;-51
2022/08/07 09:51:06;;;;;;;4.03;2.20;;;20.90;98.20;;;;;;5008545;28;20046;-48
2022/08/07 09:53:41;;;;;;;4.47;2.20;;;20.90;97.20;;;;;;5008167;28;20105;-52
2022/08/07 09:56:36;;;;;;;4.93;2.17;;;20.80;97.80;;;;;;5006248;28;20477;-52
2022/08/07 09:59:22;;;;;;;3.85;2.17;;;20.70;98.50;;;;;;5005416;28;20049;-50
2022/08/07 10:02:24;;;;;;;4.07;2.17;;;20.70;97.50;;;;;;5006436;28;20122;-50
2022/08/07 10:05:10;;;;;;;5.18;2.10;;;20.70;97.50;;;;;;5007915;28;20080;-53
2022/08/07 10:08:24;;;;;;;3.40;2.10;;;20.90;98.00;;;;;;5008139;28;20041;-52
2022/08/07 10:11:11;;;;;;;3.38;1.90;;;20.80;96.80;;;;;;4946951;29;20047;-49
2022/08/07 10:13:45;;;;;;;3.72;2.00;;;20.90;97.40;;;;;;4945659;29;20047;-52
2022/08/07 10:16:31;;;;;;;4.10;2.08;;;21.10;97.60;;;;;;4991050;28;20049;-49
2022/08/07 10:19:39;;;;;;;5.78;2.08;;;21.20;97.10;;;;;;5006195;28;20034;-51
2022/08/07 10:22:38;;;;;;;3.92;1.80;;;21.00;96.70;;;;;;5007682;28;20099;-52
2022/08/07 10:25:06;;;;;;;4.88;1.95;;;21.00;96.50;;;;;;5011246;28;20042;-49
2022/08/07 10:28:09;;;;;;;3.72;1.83;;;21.20;97.50;;;;;;5006369;28;20084;-51
2022/08/07 10:30:44;;;;;;;2.90;1.67;;;21.10;95.40;;;;;;5007764;28;20209;-53
2022/08/07 10:33:19;;;;;;;2.67;1.52;;;21.30;94.90;;;;;;5010519;28;20045;-49
2022/08/07 10:36:13;;;;;;;4.55;1.70;;;21.10;95.60;;;;;;5007764;28;20120;-52
2022/08/07 10:39:11;;;;;;;3.97;1.92;;;21.30;95.80;;;;;;5004428;28;20133;-51
2022/08/07 10:41:50;;;;;;;4.20;2.50;;;21.30;96.50;;;;;;5007297;28;20075;-52
2022/08/07 10:44:51;;;;;;;3.88;2.47;;;21.30;95.90;;;;;;5008089;28;20037;-50
2022/08/07 10:47:57;;;;;;;5.10;2.42;;;21.40;94.60;;;;;;5004055;28;20073;-51
2022/08/07 10:50:27;;;;;;;4.10;1.92;;;21.70;95.20;;;;;;5004858;28;20157;-52
2022/08/07 10:53:06;;;;;;;4.32;2.03;;;21.60;94.40;;;;;;5008151;28;20548;-54
2022/08/07 10:55:57;;;;;;;4.45;2.05;;;21.70;95.90;;;;;;5008525;28;20136;-50
2022/08/07 10:58:43;;;;;;;5.43;2.10;;;21.90;94.40;;;;;;5006127;28;20072;-51
2022/08/07 11:01:18;;;;;;;3.70;2.00;;;21.90;94.10;;;;;;5007783;28;20049;-51
2022/08/07 11:03:59;;;;;;;4.75;2.00;;;22.00;94.60;;;;;;5007066;28;20385;-52
2022/08/07 11:06:39;;;;;;;2.97;1.60;;;22.00;94.60;;;;;;5007714;28;20042;-53
2022/08/07 11:09:17;;;;;;;4.40;1.98;;;22.10;94.40;;;;;;5005686;28;20107;-49
2022/08/07 11:12:03;;;;;;;3.47;1.90;;;22.10;93.90;;;;;;5007590;28;20033;-52
2022/08/07 11:14:40;;;;;;;3.90;1.95;;;22.20;93.60;;;;;;5007133;28;20068;-50
2022/08/07 11:17:11;;;;;;;4.53;2.05;;;22.20;93.80;;;;;;5006727;28;20370;-49
2022/08/07 11:19:51;;;;;;;3.63;1.83;;;22.60;93.10;;;;;;5007883;28;20061;-50
2022/08/07 11:22:40;;;;;;;4.20;1.92;;;22.60;94.00;;;;;;5006724;28;20065;-51
2022/08/07 11:25:32;;;;;;;3.38;1.80;;;22.90;94.10;;;;;;4999254;28;20046;-52
2022/08/07 11:28:19;;;;;;;5.53;2.08;;;22.90;92.40;;;;;;5007203;28;20476;-51
2022/08/07 11:31:09;;;;;;;4.00;1.75;;;22.80;92.00;;;;;;5004664;28;20045;-55
2022/08/07 11:34:05;;;;;;;3.88;1.80;;;23.10;92.40;;;;;;5007118;28;20418;-52
2022/08/07 11:36:46;;;;;;;2.63;1.48;;;22.90;91.50;;;;;;5011774;28;20461;-55
2022/08/07 11:39:30;;;;;;;4.00;1.92;;;23.30;93.30;;;;;;5011737;28;20037;-54
2022/08/07 11:42:07;;;;;;;5.18;1.90;;;23.40;91.60;;;;;;5012358;28;20492;-51
2022/08/07 11:44:56;;;;;;;4.53;1.70;;;23.80;92.50;;;;;;5012221;28;20057;-52
2022/08/07 11:47:27;;;;;;;4.00;1.50;;;23.30;90.40;;;;;;5010632;28;20074;-52
2022/08/07 11:50:00;;;;;;;3.05;1.65;;;23.30;88.60;;;;;;5010569;28;20153;-53
2022/08/07 11:52:46;;;;;;;3.08;1.33;;;23.40;90.10;;;;;;5012413;28;20366;-52
2022/08/07 11:55:22;;;;;;;3.00;1.38;;;23.80;90.10;;;;;;5009844;28;20038;-52
2022/08/07 11:58:14;;;;;;;3.92;1.40;;;23.50;90.10;;;;;;5009171;28;20044;-53
2022/08/07 12:00:48;;;;;;;3.70;1.35;;;23.50;90.10;;;;;;5000264;28;20133;-53
2022/08/07 12:03:25;;;;;;;;;;;23.60;89.40;;;;;;5011076;28;20068;-51
2022/08/07 12:06:36;;;;;;;3.88;1.60;;;23.70;88.30;;;;;;5012333;28;19947;-50
2022/08/07 12:09:17;;;;;;;3.78;1.60;;;24.00;90.40;;;;;;5009740;28;20121;-54
2022/08/07 12:11:52;;;;;;;4.35;1.75;;;24.20;90.40;;;;;;5010927;28;20034;-52
2022/08/07 12:14:22;;;;;;;4.05;1.95;;;24.30;90.50;;;;;;5011059;28;20088;-53
2022/08/07 12:16:57;;;;;;;2.97;1.55;;;24.00;91.20;;;;;;5009890;28;20097;-53
2022/08/07 12:19:53;;;;;;;3.42;1.95;;;24.20;90.30;;;;;;5010153;28;20044;-51
2022/08/07 12:22:45;;;;;;;3.00;1.50;;;23.90;90.40;;;;;;5006242;28;20049;-52
2022/08/07 12:28:23;;;;;;;3.95;1.92;;;24.30;90.50;;;;;;5007142;28;20049;-53
2022/08/07 12:30:54;;;;;;;3.08;1.67;;;24.10;89.20;;;;;;5005593;28;20046;-52
2022/08/07 12:33:24;;;;;;;3.72;1.52;;;24.70;91.20;;;;;;5012284;28;20073;-50
2022/08/07 12:35:52;;;;;;;3.17;1.58;;;24.60;90.20;;;;;;5012033;28;20038;-54
2022/08/07 12:38:20;;;;;;;4.03;1.60;;;24.90;91.30;;;;;;5012659;28;20087;-55
2022/08/07 12:40:50;;;;;;;4.45;1.85;;;24.70;90.40;;;;;;5012884;28;20393;-52
2022/08/07 12:43:20;;;;;;;3.88;2.00;;;24.60;90.50;;;;;;5012285;28;20030;-49
2022/08/07 12:45:54;;;;;;;4.25;1.80;;;25.00;90.30;;;;;;5012866;28;20041;-52
2022/08/07 12:48:40;;;;;;;;;;;25.20;90.60;;;;;;5013342;28;20501;-54
2022/08/07 12:51:14;;;;;;;4.32;1.60;;;25.40;91.10;;;;;;5001281;28;19917;-50
2022/08/07 12:54:03;;;;;;;5.00;2.20;;;25.20;90.60;;;;;;4996100;28;20079;-53
2022/08/07 12:56:40;;;;;;;3.92;1.80;;;25.60;90.20;;;;;;5012852;28;20056;-52
2022/08/07 12:59:07;;;;;;;3.65;1.88;;;25.30;89.60;;;;;;5010679;28;20038;-51
2022/08/07 13:01:52;;;;;;;3.33;2.00;;;25.50;89.90;;;;;;4994855;28;20050;-53
2022/08/07 13:04:41;;;;;;;3.47;1.58;;;25.50;89.40;;;;;;4993784;28;20070;-52
2022/08/07 13:07:37;;;;;;;3.90;1.80;;;25.80;89.50;;;;;;5012246;28;20117;-54
2022/08/07 13:10:38;;;;;;;3.53;1.92;;;26.20;88.60;;;;;;5002637;28;20503;-49
2022/08/07 13:13:38;;;;;;;3.17;1.60;;;25.80;88.10;;;;;;5004849;28;20089;-52
2022/08/07 13:16:16;;;;;;;4.60;1.80;;;25.70;88.30;;;;;;5011831;28;20069;-50
2022/08/07 13:19:12;;;;;;;4.07;1.90;;;26.00;87.20;;;;;;4994355;28;20045;-55
2022/08/07 13:21:44;;;;;;;2.70;1.45;;;26.00;83.60;;;;;;4998616;28;20520;-52
2022/08/07 13:24:29;;;;;;;4.90;1.55;;;26.40;86.20;;;;;;4994572;28;20121;-54